Main page
METAR-TAF:

METAR-TAF

Airports :

Târgu Mureș International Airport

Târgu Mureş, Romania

latitude: 46-32N, longitude: 024-32E, elevation: 308 m

Current weather observation

The report was made 38 minutes ago, at 10:30 UTC
Wind 3 kt from the West/Southwest
Temperature -1°C
Humidity 93%
Pressure 1031 hPa
Visibility: 7000 m
Few clouds at a height of 1000 ft
Overcast at a height of 2300 ft

METAR: LRTM 221030Z 24003KT 7000 FEW010 OVC023 M01/M02 Q1031 R07/19//95

Time: 13:08 (11:08 UTC)

Forecast

The report was made 3 hours and 8 minutes ago, at 08:00 UTC
Forecast valid from 22 at 09 UTC to 22 at 18 UTC
Wind 4 kt from variable directions
Visibility: 5000 m
Overcast at a height of 2500 ft
mist
Becoming
from 22 at 09 UTC to 22 at 11 UTC
Visibility 10 km or more

TAF: LRTM 220800Z 2209/2218 VRB04KT 5000 BR OVC025 BECMG 2209/2211 9999 NSW

Weather observations and forecasts of more than 4000 airports (METAR and TAF reports).

The available stations are represented by yellow and red dots on the map.

Hover mouse over dot to see the name of the station.

Then click to see weather observations and forecasts.

To change the map : click on the green buttons with a black cross to zoom in, on the green button with a dash to zoom out, or on the green arrows for adjacent maps.


METAR-TAF: